sensor_id;sensor_type;location;lat;lon;timestamp;temperature;humidity
18741;DHT22;9499;52.472;13.448;2022-11-20T00:02:08;0.30;99.90
18741;DHT22;9499;52.472;13.448;2022-11-20T00:04:34;0.30;99.90
18741;DHT22;9499;52.472;13.448;2022-11-20T00:07:01;0.30;99.90
18741;DHT22;9499;52.472;13.448;2022-11-20T00:09:27;0.30;99.90
18741;DHT22;9499;52.472;13.448;2022-11-20T00:11:55;0.20;99.90
18741;DHT22;9499;52.472;13.448;2022-11-20T00:14:21;0.20;99.90
18741;DHT22;9499;52.472;13.448;2022-11-20T00:16:48;0.20;99.90
18741;DHT22;9499;52.472;13.448;2022-11-20T00:19:15;0.20;99.90
18741;DHT22;9499;52.472;13.448;2022-11-20T00:21:41;0.20;99.90
18741;DHT22;9499;52.472;13.448;2022-11-20T00:24:08;0.20;99.90
18741;DHT22;9499;52.472;13.448;2022-11-20T00:26:35;0.30;99.90
18741;DHT22;9499;52.472;13.448;2022-11-20T00:29:03;0.30;99.90
18741;DHT22;9499;52.472;13.448;2022-11-20T00:31:30;0.30;99.90
18741;DHT22;9499;52.472;13.448;2022-11-20T00:33:58;0.30;99.90
18741;DHT22;9499;52.472;13.448;2022-11-20T00:36:26;0.30;99.90
18741;DHT22;9499;52.472;13.448;2022-11-20T00:38:54;0.30;99.90
18741;DHT22;9499;52.472;13.448;2022-11-20T00:41:22;0.30;99.90
18741;DHT22;9499;52.472;13.448;2022-11-20T00:43:49;0.30;99.90
18741;DHT22;9499;52.472;13.448;2022-11-20T00:46:18;0.30;99.90
18741;DHT22;9499;52.472;13.448;2022-11-20T00:48:45;0.30;99.90
18741;DHT22;9499;52.472;13.448;2022-11-20T00:51:13;0.30;99.90
18741;DHT22;9499;52.472;13.448;2022-11-20T00:53:40;0.30;99.90
18741;DHT22;9499;52.472;13.448;2022-11-20T00:56:09;0.30;99.90
18741;DHT22;9499;52.472;13.448;2022-11-20T00:58:38;0.30;99.90
18741;DHT22;9499;52.472;13.448;2022-11-20T01:01:06;0.30;99.90
18741;DHT22;9499;52.472;13.448;2022-11-20T01:03:36;0.30;99.90
18741;DHT22;9499;52.472;13.448;2022-11-20T01:06:05;0.30;99.90
18741;DHT22;9499;52.472;13.448;2022-11-20T01:08:33;0.30;99.90
18741;DHT22;9499;52.472;13.448;2022-11-20T01:11:00;0.20;99.90
18741;DHT22;9499;52.472;13.448;2022-11-20T01:13:27;0.20;99.90
18741;DHT22;9499;52.472;13.448;2022-11-20T01:16:04;0.20;99.90
18741;DHT22;9499;52.472;13.448;2022-11-20T01:18:31;0.20;99.90
18741;DHT22;9499;52.472;13.448;2022-11-20T01:21:02;0.20;99.90
18741;DHT22;9499;52.472;13.448;2022-11-20T01:23:31;0.20;99.90
18741;DHT22;9499;52.472;13.448;2022-11-20T01:25:59;0.20;99.90
18741;DHT22;9499;52.472;13.448;2022-11-20T01:28:26;0.30;99.90
18741;DHT22;9499;52.472;13.448;2022-11-20T01:30:52;0.30;99.90
18741;DHT22;9499;52.472;13.448;2022-11-20T01:33:19;0.30;99.90
18741;DHT22;9499;52.472;13.448;2022-11-20T01:35:45;0.30;99.90
18741;DHT22;9499;52.472;13.448;2022-11-20T01:38:14;0.30;99.90
18741;DHT22;9499;52.472;13.448;2022-11-20T01:40:41;0.30;99.90
18741;DHT22;9499;52.472;13.448;2022-11-20T01:43:13;0.30;99.90
18741;DHT22;9499;52.472;13.448;2022-11-20T01:46:04;0.20;99.90
18741;DHT22;9499;52.472;13.448;2022-11-20T01:48:35;0.20;99.90
18741;DHT22;9499;52.472;13.448;2022-11-20T01:51:04;0.30;99.90
18741;DHT22;9499;52.472;13.448;2022-11-20T01:53:35;0.20;99.90
18741;DHT22;9499;52.472;13.448;2022-11-20T01:56:05;0.20;99.90
18741;DHT22;9499;52.472;13.448;2022-11-20T01:58:36;0.20;99.90
18741;DHT22;9499;52.472;13.448;2022-11-20T02:01:04;0.20;99.90
18741;DHT22;9499;52.472;13.448;2022-11-20T02:03:30;0.20;99.90
18741;DHT22;9499;52.472;13.448;2022-11-20T02:06:02;0.20;99.90
18741;DHT22;9499;52.472;13.448;2022-11-20T02:08:30;0.10;99.90
18741;DHT22;9499;52.472;13.448;2022-11-20T02:10:58;0.10;99.90
18741;DHT22;9499;52.472;13.448;2022-11-20T02:13:25;0.10;99.90
18741;DHT22;9499;52.472;13.448;2022-11-20T02:16:12;0.10;99.90
18741;DHT22;9499;52.472;13.448;2022-11-20T02:18:39;0.00;99.90
18741;DHT22;9499;52.472;13.448;2022-11-20T02:21:09;0.00;99.90
18741;DHT22;9499;52.472;13.448;2022-11-20T02:23:39;0.00;99.90
18741;DHT22;9499;52.472;13.448;2022-11-20T02:26:12;0.00;99.90
18741;DHT22;9499;52.472;13.448;2022-11-20T02:28:39;0.00;99.90
18741;DHT22;9499;52.472;13.448;2022-11-20T02:31:06;0.00;99.90
18741;DHT22;9499;52.472;13.448;2022-11-20T02:33:33;0.00;99.90
18741;DHT22;9499;52.472;13.448;2022-11-20T02:35:59;0.00;99.90
18741;DHT22;9499;52.472;13.448;2022-11-20T02:38:26;-0.10;99.90
18741;DHT22;9499;52.472;13.448;2022-11-20T02:40:52;-0.10;99.90
18741;DHT22;9499;52.472;13.448;2022-11-20T02:43:20;0.00;99.90
18741;DHT22;9499;52.472;13.448;2022-11-20T02:45:47;0.00;99.90
18741;DHT22;9499;52.472;13.448;2022-11-20T02:48:13;0.00;99.90
18741;DHT22;9499;52.472;13.448;2022-11-20T02:50:40;0.00;99.90
18741;DHT22;9499;52.472;13.448;2022-11-20T02:53:07;0.00;99.90
18741;DHT22;9499;52.472;13.448;2022-11-20T02:55:33;0.00;99.90
18741;DHT22;9499;52.472;13.448;2022-11-20T02:58:00;0.00;99.90
18741;DHT22;9499;52.472;13.448;2022-11-20T03:00:28;-0.10;99.90
18741;DHT22;9499;52.472;13.448;2022-11-20T03:02:54;-0.10;99.90
18741;DHT22;9499;52.472;13.448;2022-11-20T03:05:21;0.00;99.90
18741;DHT22;9499;52.472;13.448;2022-11-20T03:07:48;-0.10;99.90
18741;DHT22;9499;52.472;13.448;2022-11-20T03:10:14;0.00;99.90
18741;DHT22;9499;52.472;13.448;2022-11-20T03:12:41;0.00;99.90
18741;DHT22;9499;52.472;13.448;2022-11-20T03:15:08;0.00;99.90
18741;DHT22;9499;52.472;13.448;2022-11-20T03:17:36;-0.10;99.90
18741;DHT22;9499;52.472;13.448;2022-11-20T03:20:04;-0.10;99.90
18741;DHT22;9499;52.472;13.448;2022-11-20T03:22:31;-0.10;99.90
18741;DHT22;9499;52.472;13.448;2022-11-20T03:24:57;-0.10;99.90
18741;DHT22;9499;52.472;13.448;2022-11-20T03:27:24;-0.10;99.90
18741;DHT22;9499;52.472;13.448;2022-11-20T03:29:50;-0.10;99.90
18741;DHT22;9499;52.472;13.448;2022-11-20T03:32:17;-0.10;99.90
18741;DHT22;9499;52.472;13.448;2022-11-20T03:34:45;-0.10;99.90
18741;DHT22;9499;52.472;13.448;2022-11-20T03:37:11;0.00;99.90
18741;DHT22;9499;52.472;13.448;2022-11-20T03:39:38;0.00;99.90
18741;DHT22;9499;52.472;13.448;2022-11-20T03:42:04;-0.10;99.90
18741;DHT22;9499;52.472;13.448;2022-11-20T03:44:51;-0.10;99.90
18741;DHT22;9499;52.472;13.448;2022-11-20T03:47:17;0.00;99.90
18741;DHT22;9499;52.472;13.448;2022-11-20T03:49:45;0.00;99.90
18741;DHT22;9499;52.472;13.448;2022-11-20T03:52:12;-0.10;99.90
18741;DHT22;9499;52.472;13.448;2022-11-20T03:54:38;0.00;99.90
18741;DHT22;9499;52.472;13.448;2022-11-20T03:57:05;-0.10;99.90
18741;DHT22;9499;52.472;13.448;2022-11-20T03:59:31;0.00;99.90
18741;DHT22;9499;52.472;13.448;2022-11-20T04:01:58;-0.10;99.90
18741;DHT22;9499;52.472;13.448;2022-11-20T04:04:24;-0.10;99.90
18741;DHT22;9499;52.472;13.448;2022-11-20T04:06:52;-0.10;99.90
18741;DHT22;9499;52.472;13.448;2022-11-20T04:09:18;-0.10;99.90
18741;DHT22;9499;52.472;13.448;2022-11-20T04:11:45;-0.10;99.90
18741;DHT22;9499;52.472;13.448;2022-11-20T04:14:13;-0.20;99.90
18741;DHT22;9499;52.472;13.448;2022-11-20T04:16:40;-0.20;99.90
18741;DHT22;9499;52.472;13.448;2022-11-20T04:19:10;-0.20;99.90
18741;DHT22;9499;52.472;13.448;2022-11-20T04:21:37;-0.20;99.90
18741;DHT22;9499;52.472;13.448;2022-11-20T04:24:06;-0.20;99.90
18741;DHT22;9499;52.472;13.448;2022-11-20T04:26:33;-0.10;99.90
18741;DHT22;9499;52.472;13.448;2022-11-20T04:29:00;-0.10;99.90
18741;DHT22;9499;52.472;13.448;2022-11-20T04:31:28;-0.20;99.90
18741;DHT22;9499;52.472;13.448;2022-11-20T04:33:58;-0.20;99.90
18741;DHT22;9499;52.472;13.448;2022-11-20T04:36:26;-0.20;99.90
18741;DHT22;9499;52.472;13.448;2022-11-20T04:38:54;-0.20;99.90
18741;DHT22;9499;52.472;13.448;2022-11-20T04:41:24;-0.20;99.90
18741;DHT22;9499;52.472;13.448;2022-11-20T04:43:52;-0.10;99.90
18741;DHT22;9499;52.472;13.448;2022-11-20T04:46:20;-0.10;99.90
18741;DHT22;9499;52.472;13.448;2022-11-20T04:48:47;-0.10;99.90
18741;DHT22;9499;52.472;13.448;2022-11-20T04:51:13;-0.20;99.90
18741;DHT22;9499;52.472;13.448;2022-11-20T04:53:40;-0.20;99.90
18741;DHT22;9499;52.472;13.448;2022-11-20T04:56:08;-0.20;99.90
18741;DHT22;9499;52.472;13.448;2022-11-20T04:58:37;-0.20;99.90
18741;DHT22;9499;52.472;13.448;2022-11-20T05:01:05;-0.20;99.90
18741;DHT22;9499;52.472;13.448;2022-11-20T05:03:32;-0.30;99.90
18741;DHT22;9499;52.472;13.448;2022-11-20T05:06:00;-0.30;99.90
18741;DHT22;9499;52.472;13.448;2022-11-20T05:08:27;-0.30;99.90
18741;DHT22;9499;52.472;13.448;2022-11-20T05:10:54;-0.30;99.90
18741;DHT22;9499;52.472;13.448;2022-11-20T05:13:20;-0.20;99.90
18741;DHT22;9499;52.472;13.448;2022-11-20T05:15:48;-0.20;99.90
18741;DHT22;9499;52.472;13.448;2022-11-20T05:18:14;-0.20;99.90
18741;DHT22;9499;52.472;13.448;2022-11-20T05:20:41;-0.20;99.90
18741;DHT22;9499;52.472;13.448;2022-11-20T05:23:07;-0.10;99.90
18741;DHT22;9499;52.472;13.448;2022-11-20T05:25:33;-0.10;99.90
18741;DHT22;9499;52.472;13.448;2022-11-20T05:28:00;-0.10;99.90
18741;DHT22;9499;52.472;13.448;2022-11-20T05:30:26;-0.10;99.90
18741;DHT22;9499;52.472;13.448;2022-11-20T05:32:54;-0.10;99.90
18741;DHT22;9499;52.472;13.448;2022-11-20T05:35:21;-0.10;99.90
18741;DHT22;9499;52.472;13.448;2022-11-20T05:37:47;-0.10;99.90
18741;DHT22;9499;52.472;13.448;2022-11-20T05:40:14;0.00;99.90
18741;DHT22;9499;52.472;13.448;2022-11-20T05:42:40;0.00;99.90
18741;DHT22;9499;52.472;13.448;2022-11-20T05:45:09;0.00;99.90
18741;DHT22;9499;52.472;13.448;2022-11-20T05:47:35;0.00;99.90
18741;DHT22;9499;52.472;13.448;2022-11-20T05:50:04;0.00;99.90
18741;DHT22;9499;52.472;13.448;2022-11-20T05:52:31;0.00;99.90
18741;DHT22;9499;52.472;13.448;2022-11-20T05:54:57;0.00;99.90
18741;DHT22;9499;52.472;13.448;2022-11-20T05:57:24;0.00;99.90
18741;DHT22;9499;52.472;13.448;2022-11-20T05:59:50;0.00;99.90
18741;DHT22;9499;52.472;13.448;2022-11-20T06:02:17;0.00;99.90
18741;DHT22;9499;52.472;13.448;2022-11-20T06:04:43;0.00;99.90
18741;DHT22;9499;52.472;13.448;2022-11-20T06:07:11;0.00;99.90
18741;DHT22;9499;52.472;13.448;2022-11-20T06:09:37;-0.10;99.90
18741;DHT22;9499;52.472;13.448;2022-11-20T06:12:04;0.00;99.90
18741;DHT22;9499;52.472;13.448;2022-11-20T06:14:32;-0.10;99.90
18741;DHT22;9499;52.472;13.448;2022-11-20T06:16:59;-0.10;99.90
18741;DHT22;9499;52.472;13.448;2022-11-20T06:19:25;-0.10;99.90
18741;DHT22;9499;52.472;13.448;2022-11-20T06:21:52;-0.10;99.90
18741;DHT22;9499;52.472;13.448;2022-11-20T06:24:19;-0.10;99.90
18741;DHT22;9499;52.472;13.448;2022-11-20T06:26:46;-0.10;99.90
18741;DHT22;9499;52.472;13.448;2022-11-20T06:29:12;-0.10;99.90
18741;DHT22;9499;52.472;13.448;2022-11-20T06:31:39;-0.10;99.90
18741;DHT22;9499;52.472;13.448;2022-11-20T06:34:08;-0.10;99.90
18741;DHT22;9499;52.472;13.448;2022-11-20T06:36:34;-0.10;99.90
18741;DHT22;9499;52.472;13.448;2022-11-20T06:39:01;-0.10;99.90
18741;DHT22;9499;52.472;13.448;2022-11-20T06:41:29;-0.10;99.90
18741;DHT22;9499;52.472;13.448;2022-11-20T06:43:55;0.00;99.90
18741;DHT22;9499;52.472;13.448;2022-11-20T06:46:22;0.00;99.90
18741;DHT22;9499;52.472;13.448;2022-11-20T06:48:49;0.00;99.90
18741;DHT22;9499;52.472;13.448;2022-11-20T06:51:16;0.00;99.90
18741;DHT22;9499;52.472;13.448;2022-11-20T06:53:43;0.00;99.90
18741;DHT22;9499;52.472;13.448;2022-11-20T06:56:09;0.00;99.90
18741;DHT22;9499;52.472;13.448;2022-11-20T06:58:37;0.10;99.90
18741;DHT22;9499;52.472;13.448;2022-11-20T07:01:06;0.10;99.90
18741;DHT22;9499;52.472;13.448;2022-11-20T07:03:33;0.10;99.90
18741;DHT22;9499;52.472;13.448;2022-11-20T07:06:00;0.10;99.90
18741;DHT22;9499;52.472;13.448;2022-11-20T07:08:27;0.20;99.90
18741;DHT22;9499;52.472;13.448;2022-11-20T07:10:57;0.20;99.90
18741;DHT22;9499;52.472;13.448;2022-11-20T07:13:25;0.20;99.90
18741;DHT22;9499;52.472;13.448;2022-11-20T07:15:53;0.10;99.90
18741;DHT22;9499;52.472;13.448;2022-11-20T07:18:19;0.10;99.90
18741;DHT22;9499;52.472;13.448;2022-11-20T07:20:46;0.10;99.90
18741;DHT22;9499;52.472;13.448;2022-11-20T07:23:12;0.00;99.90
18741;DHT22;9499;52.472;13.448;2022-11-20T07:25:39;0.00;99.90
18741;DHT22;9499;52.472;13.448;2022-11-20T07:28:05;0.00;99.90
18741;DHT22;9499;52.472;13.448;2022-11-20T07:30:32;0.00;99.90
18741;DHT22;9499;52.472;13.448;2022-11-20T07:33:00;-0.10;99.90
18741;DHT22;9499;52.472;13.448;2022-11-20T07:35:26;-0.10;99.90
18741;DHT22;9499;52.472;13.448;2022-11-20T07:37:52;-0.10;99.90
18741;DHT22;9499;52.472;13.448;2022-11-20T07:40:19;-0.10;99.90
18741;DHT22;9499;52.472;13.448;2022-11-20T07:42:49;-0.10;99.90
18741;DHT22;9499;52.472;13.448;2022-11-20T07:45:16;-0.10;99.90
18741;DHT22;9499;52.472;13.448;2022-11-20T07:47:42;-0.20;99.90
18741;DHT22;9499;52.472;13.448;2022-11-20T07:50:10;-0.20;99.90
18741;DHT22;9499;52.472;13.448;2022-11-20T07:52:37;-0.20;99.90
18741;DHT22;9499;52.472;13.448;2022-11-20T07:55:04;-0.20;99.90
18741;DHT22;9499;52.472;13.448;2022-11-20T07:57:31;-0.20;99.90
18741;DHT22;9499;52.472;13.448;2022-11-20T07:59:57;-0.10;99.90
18741;DHT22;9499;52.472;13.448;2022-11-20T08:02:24;-0.20;99.90
18741;DHT22;9499;52.472;13.448;2022-11-20T08:04:51;-0.10;99.90
18741;DHT22;9499;52.472;13.448;2022-11-20T08:07:19;-0.10;99.90
18741;DHT22;9499;52.472;13.448;2022-11-20T08:09:49;-0.10;99.90
18741;DHT22;9499;52.472;13.448;2022-11-20T08:12:18;-0.10;99.90
18741;DHT22;9499;52.472;13.448;2022-11-20T08:15:04;-0.10;99.90
18741;DHT22;9499;52.472;13.448;2022-11-20T08:17:31;0.00;99.90
18741;DHT22;9499;52.472;13.448;2022-11-20T08:19:57;0.00;99.90
18741;DHT22;9499;52.472;13.448;2022-11-20T08:22:25;0.00;99.90
18741;DHT22;9499;52.472;13.448;2022-11-20T08:24:51;0.00;99.90
18741;DHT22;9499;52.472;13.448;2022-11-20T08:27:18;0.00;99.90
18741;DHT22;9499;52.472;13.448;2022-11-20T08:29:45;0.10;99.90
18741;DHT22;9499;52.472;13.448;2022-11-20T08:32:11;0.10;99.90
18741;DHT22;9499;52.472;13.448;2022-11-20T08:34:38;0.20;99.90
18741;DHT22;9499;52.472;13.448;2022-11-20T08:37:04;0.20;99.90
18741;DHT22;9499;52.472;13.448;2022-11-20T08:39:32;0.20;99.90
18741;DHT22;9499;52.472;13.448;2022-11-20T08:41:59;0.20;99.90
18741;DHT22;9499;52.472;13.448;2022-11-20T08:44:25;0.30;99.90
18741;DHT22;9499;52.472;13.448;2022-11-20T08:46:52;0.20;99.90
18741;DHT22;9499;52.472;13.448;2022-11-20T08:49:18;0.30;99.90
18741;DHT22;9499;52.472;13.448;2022-11-20T08:51:45;0.30;99.90
18741;DHT22;9499;52.472;13.448;2022-11-20T08:54:13;0.30;99.90
18741;DHT22;9499;52.472;13.448;2022-11-20T08:56:41;0.30;99.90
18741;DHT22;9499;52.472;13.448;2022-11-20T08:59:07;0.30;99.90
18741;DHT22;9499;52.472;13.448;2022-11-20T09:01:33;0.20;99.90
18741;DHT22;9499;52.472;13.448;2022-11-20T09:04:00;0.20;99.90
18741;DHT22;9499;52.472;13.448;2022-11-20T09:06:26;0.20;99.90
18741;DHT22;9499;52.472;13.448;2022-11-20T09:08:53;0.30;99.90
18741;DHT22;9499;52.472;13.448;2022-11-20T09:11:20;0.20;99.90
18741;DHT22;9499;52.472;13.448;2022-11-20T09:13:48;0.20;99.90
18741;DHT22;9499;52.472;13.448;2022-11-20T09:16:14;0.30;99.90
18741;DHT22;9499;52.472;13.448;2022-11-20T09:18:41;0.20;99.90
18741;DHT22;9499;52.472;13.448;2022-11-20T09:21:10;0.30;99.90
18741;DHT22;9499;52.472;13.448;2022-11-20T09:23:38;0.30;99.90
18741;DHT22;9499;52.472;13.448;2022-11-20T09:26:06;0.30;99.90
18741;DHT22;9499;52.472;13.448;2022-11-20T09:28:33;0.30;99.90
18741;DHT22;9499;52.472;13.448;2022-11-20T09:31:04;0.30;99.90
18741;DHT22;9499;52.472;13.448;2022-11-20T09:33:31;0.30;99.90
18741;DHT22;9499;52.472;13.448;2022-11-20T09:35:58;0.30;99.90
18741;DHT22;9499;52.472;13.448;2022-11-20T09:38:24;0.20;99.90
18741;DHT22;9499;52.472;13.448;2022-11-20T09:40:56;0.20;99.90
18741;DHT22;9499;52.472;13.448;2022-11-20T09:43:30;0.20;99.90
18741;DHT22;9499;52.472;13.448;2022-11-20T09:46:06;0.20;99.90
18741;DHT22;9499;52.472;13.448;2022-11-20T09:48:52;0.20;99.90
18741;DHT22;9499;52.472;13.448;2022-11-20T09:51:30;0.10;99.90
18741;DHT22;9499;52.472;13.448;2022-11-20T09:54:11;0.10;99.90
18741;DHT22;9499;52.472;13.448;2022-11-20T09:56:41;0.20;99.90
18741;DHT22;9499;52.472;13.448;2022-11-20T09:59:18;0.20;99.90
18741;DHT22;9499;52.472;13.448;2022-11-20T10:01:49;0.20;99.90
18741;DHT22;9499;52.472;13.448;2022-11-20T10:04:18;0.20;99.90
18741;DHT22;9499;52.472;13.448;2022-11-20T10:09:24;0.30;99.90
18741;DHT22;9499;52.472;13.448;2022-11-20T10:12:04;0.30;99.90
18741;DHT22;9499;52.472;13.448;2022-11-20T10:14:38;0.30;99.90
18741;DHT22;9499;52.472;13.448;2022-11-20T10:17:15;0.30;99.90
18741;DHT22;9499;52.472;13.448;2022-11-20T10:19:56;0.40;99.90
18741;DHT22;9499;52.472;13.448;2022-11-20T13:27:46;1.40;99.90
18741;DHT22;9499;52.472;13.448;2022-11-20T13:30:15;1.40;99.90
18741;DHT22;9499;52.472;13.448;2022-11-20T13:32:51;1.40;99.90
18741;DHT22;9499;52.472;13.448;2022-11-20T13:35:27;1.40;99.90
18741;DHT22;9499;52.472;13.448;2022-11-20T13:38:03;1.40;99.90
18741;DHT22;9499;52.472;13.448;2022-11-20T13:40:30;1.30;99.90
18741;DHT22;9499;52.472;13.448;2022-11-20T13:43:10;1.30;99.90
18741;DHT22;9499;52.472;13.448;2022-11-20T13:45:41;1.40;99.90
18741;DHT22;9499;52.472;13.448;2022-11-20T13:48:20;1.40;99.90
18741;DHT22;9499;52.472;13.448;2022-11-20T13:51:02;1.40;99.90
18741;DHT22;9499;52.472;13.448;2022-11-20T13:53:48;1.40;99.90
18741;DHT22;9499;52.472;13.448;2022-11-20T13:56:24;1.30;99.90
18741;DHT22;9499;52.472;13.448;2022-11-20T13:59:02;1.40;99.90
18741;DHT22;9499;52.472;13.448;2022-11-20T14:01:32;1.40;99.90
18741;DHT22;9499;52.472;13.448;2022-11-20T14:04:01;1.30;99.90
18741;DHT22;9499;52.472;13.448;2022-11-20T14:06:38;1.30;99.90
18741;DHT22;9499;52.472;13.448;2022-11-20T14:09:05;1.30;99.90
18741;DHT22;9499;52.472;13.448;2022-11-20T14:11:37;1.30;99.90
18741;DHT22;9499;52.472;13.448;2022-11-20T14:14:16;1.30;99.90
18741;DHT22;9499;52.472;13.448;2022-11-20T14:16:44;1.30;99.90
18741;DHT22;9499;52.472;13.448;2022-11-20T14:19:25;1.30;99.90
18741;DHT22;9499;52.472;13.448;2022-11-20T14:21:53;1.30;99.90
18741;DHT22;9499;52.472;13.448;2022-11-20T14:24:22;1.20;99.90
18741;DHT22;9499;52.472;13.448;2022-11-20T14:26:49;1.20;99.90
18741;DHT22;9499;52.472;13.448;2022-11-20T14:29:21;1.20;99.90
18741;DHT22;9499;52.472;13.448;2022-11-20T14:31:52;1.20;99.90
18741;DHT22;9499;52.472;13.448;2022-11-20T14:34:20;1.20;99.90
18741;DHT22;9499;52.472;13.448;2022-11-20T14:36:49;1.20;99.90
18741;DHT22;9499;52.472;13.448;2022-11-20T14:39:20;1.30;99.90
18741;DHT22;9499;52.472;13.448;2022-11-20T14:41:50;1.30;99.90
18741;DHT22;9499;52.472;13.448;2022-11-20T14:44:21;1.30;99.90
18741;DHT22;9499;52.472;13.448;2022-11-20T14:46:50;1.30;99.90
18741;DHT22;9499;52.472;13.448;2022-11-20T14:49:17;1.30;99.90
18741;DHT22;9499;52.472;13.448;2022-11-20T14:51:44;1.30;99.90
18741;DHT22;9499;52.472;13.448;2022-11-20T14:54:14;1.30;99.90
18741;DHT22;9499;52.472;13.448;2022-11-20T14:56:41;1.20;99.90
18741;DHT22;9499;52.472;13.448;2022-11-20T14:59:09;1.20;99.90
18741;DHT22;9499;52.472;13.448;2022-11-20T15:01:37;1.20;99.90
18741;DHT22;9499;52.472;13.448;2022-11-20T15:04:06;1.10;99.90
18741;DHT22;9499;52.472;13.448;2022-11-20T15:06:34;1.10;99.90
18741;DHT22;9499;52.472;13.448;2022-11-20T15:09:02;1.10;99.90
18741;DHT22;9499;52.472;13.448;2022-11-20T15:11:30;1.10;99.90
18741;DHT22;9499;52.472;13.448;2022-11-20T15:13:59;1.10;99.90
18741;DHT22;9499;52.472;13.448;2022-11-20T15:16:28;1.10;99.90
18741;DHT22;9499;52.472;13.448;2022-11-20T15:18:55;1.10;99.90
18741;DHT22;9499;52.472;13.448;2022-11-20T15:21:22;1.10;99.90
18741;DHT22;9499;52.472;13.448;2022-11-20T15:23:49;1.10;99.90
18741;DHT22;9499;52.472;13.448;2022-11-20T15:26:22;1.10;99.90
18741;DHT22;9499;52.472;13.448;2022-11-20T15:28:49;1.10;99.90
18741;DHT22;9499;52.472;13.448;2022-11-20T15:31:18;1.10;99.90
18741;DHT22;9499;52.472;13.448;2022-11-20T15:33:45;1.10;99.90
18741;DHT22;9499;52.472;13.448;2022-11-20T15:36:13;1.00;99.90
18741;DHT22;9499;52.472;13.448;2022-11-20T15:38:40;1.00;99.90
18741;DHT22;9499;52.472;13.448;2022-11-20T15:41:07;1.10;99.90
18741;DHT22;9499;52.472;13.448;2022-11-20T15:43:35;1.10;99.90
18741;DHT22;9499;52.472;13.448;2022-11-20T15:46:03;1.10;99.90
18741;DHT22;9499;52.472;13.448;2022-11-20T15:48:34;1.10;99.90
18741;DHT22;9499;52.472;13.448;2022-11-20T15:51:05;1.10;99.90
18741;DHT22;9499;52.472;13.448;2022-11-20T15:53:34;1.10;99.90
18741;DHT22;9499;52.472;13.448;2022-11-20T15:56:01;1.10;99.90
18741;DHT22;9499;52.472;13.448;2022-11-20T15:58:27;1.10;99.90
18741;DHT22;9499;52.472;13.448;2022-11-20T16:00:54;1.10;99.90
18741;DHT22;9499;52.472;13.448;2022-11-20T16:03:20;1.20;99.90
18741;DHT22;9499;52.472;13.448;2022-11-20T16:05:47;1.20;99.90
18741;DHT22;9499;52.472;13.448;2022-11-20T16:08:14;1.20;99.90
18741;DHT22;9499;52.472;13.448;2022-11-20T16:10:42;1.10;99.90
18741;DHT22;9499;52.472;13.448;2022-11-20T16:13:13;1.10;99.90
18741;DHT22;9499;52.472;13.448;2022-11-20T16:15:58;1.10;99.90
18741;DHT22;9499;52.472;13.448;2022-11-20T16:18:25;1.10;99.90
18741;DHT22;9499;52.472;13.448;2022-11-20T16:20:53;1.00;99.90
18741;DHT22;9499;52.472;13.448;2022-11-20T16:23:20;1.00;99.90
18741;DHT22;9499;52.472;13.448;2022-11-20T16:25:50;1.00;99.90
18741;DHT22;9499;52.472;13.448;2022-11-20T16:28:17;1.00;99.90
18741;DHT22;9499;52.472;13.448;2022-11-20T16:30:45;1.00;99.90
18741;DHT22;9499;52.472;13.448;2022-11-20T16:33:13;1.00;99.90
18741;DHT22;9499;52.472;13.448;2022-11-20T16:35:40;1.00;99.90
18741;DHT22;9499;52.472;13.448;2022-11-20T16:38:06;0.90;99.90
18741;DHT22;9499;52.472;13.448;2022-11-20T16:40:33;0.90;99.90
18741;DHT22;9499;52.472;13.448;2022-11-20T16:43:08;0.90;99.90
18741;DHT22;9499;52.472;13.448;2022-11-20T16:45:40;0.90;99.90
18741;DHT22;9499;52.472;13.448;2022-11-20T16:48:06;0.80;99.90
18741;DHT22;9499;52.472;13.448;2022-11-20T16:50:44;0.90;99.90
18741;DHT22;9499;52.472;13.448;2022-11-20T16:53:11;0.80;99.90
18741;DHT22;9499;52.472;13.448;2022-11-20T16:55:37;0.80;99.90
18741;DHT22;9499;52.472;13.448;2022-11-20T16:58:05;0.70;99.90
18741;DHT22;9499;52.472;13.448;2022-11-20T17:00:35;0.70;99.90
18741;DHT22;9499;52.472;13.448;2022-11-20T17:03:02;0.70;99.90
18741;DHT22;9499;52.472;13.448;2022-11-20T17:05:28;0.70;99.90
18741;DHT22;9499;52.472;13.448;2022-11-20T17:07:55;0.70;99.90
18741;DHT22;9499;52.472;13.448;2022-11-20T17:10:21;0.60;99.90
18741;DHT22;9499;52.472;13.448;2022-11-20T17:12:48;0.60;99.90
18741;DHT22;9499;52.472;13.448;2022-11-20T17:15:16;0.70;99.90
18741;DHT22;9499;52.472;13.448;2022-11-20T17:17:42;0.60;99.90
18741;DHT22;9499;52.472;13.448;2022-11-20T17:20:10;0.60;99.90
18741;DHT22;9499;52.472;13.448;2022-11-20T17:22:37;0.60;99.90
18741;DHT22;9499;52.472;13.448;2022-11-20T17:25:04;0.60;99.90
18741;DHT22;9499;52.472;13.448;2022-11-20T17:27:30;0.50;99.90
18741;DHT22;9499;52.472;13.448;2022-11-20T17:29:58;0.50;99.90
18741;DHT22;9499;52.472;13.448;2022-11-20T17:32:25;0.50;99.90
18741;DHT22;9499;52.472;13.448;2022-11-20T17:34:52;0.50;99.90
18741;DHT22;9499;52.472;13.448;2022-11-20T17:37:18;0.50;99.90
18741;DHT22;9499;52.472;13.448;2022-11-20T17:39:45;0.50;99.90
18741;DHT22;9499;52.472;13.448;2022-11-20T17:42:13;0.50;99.90
18741;DHT22;9499;52.472;13.448;2022-11-20T17:44:52;0.50;99.90
18741;DHT22;9499;52.472;13.448;2022-11-20T17:47:18;0.50;99.90
18741;DHT22;9499;52.472;13.448;2022-11-20T17:49:47;0.50;99.90
18741;DHT22;9499;52.472;13.448;2022-11-20T17:52:13;0.50;99.90
18741;DHT22;9499;52.472;13.448;2022-11-20T17:54:40;0.50;99.90
18741;DHT22;9499;52.472;13.448;2022-11-20T17:57:08;0.50;99.90
18741;DHT22;9499;52.472;13.448;2022-11-20T17:59:52;0.50;99.90
18741;DHT22;9499;52.472;13.448;2022-11-20T18:02:18;0.50;99.90
18741;DHT22;9499;52.472;13.448;2022-11-20T18:04:46;0.70;99.90
18741;DHT22;9499;52.472;13.448;2022-11-20T18:07:13;0.60;99.90
18741;DHT22;9499;52.472;13.448;2022-11-20T18:09:39;0.60;99.90
18741;DHT22;9499;52.472;13.448;2022-11-20T18:12:06;0.60;99.90
18741;DHT22;9499;52.472;13.448;2022-11-20T18:14:32;0.60;99.90
18741;DHT22;9499;52.472;13.448;2022-11-20T18:17:03;0.60;99.90
18741;DHT22;9499;52.472;13.448;2022-11-20T18:19:33;0.60;99.90
18741;DHT22;9499;52.472;13.448;2022-11-20T18:22:01;0.60;99.90
18741;DHT22;9499;52.472;13.448;2022-11-20T18:24:29;0.60;99.90
18741;DHT22;9499;52.472;13.448;2022-11-20T18:26:56;0.50;99.90
18741;DHT22;9499;52.472;13.448;2022-11-20T18:29:23;0.50;99.90
18741;DHT22;9499;52.472;13.448;2022-11-20T18:31:50;0.50;99.90
18741;DHT22;9499;52.472;13.448;2022-11-20T18:34:17;0.40;99.90
18741;DHT22;9499;52.472;13.448;2022-11-20T18:36:44;0.40;99.90
18741;DHT22;9499;52.472;13.448;2022-11-20T18:39:12;0.40;99.90
18741;DHT22;9499;52.472;13.448;2022-11-20T18:41:40;0.30;99.90
18741;DHT22;9499;52.472;13.448;2022-11-20T18:44:25;0.30;99.90
18741;DHT22;9499;52.472;13.448;2022-11-20T18:47:16;0.30;99.90
18741;DHT22;9499;52.472;13.448;2022-11-20T18:49:46;0.30;99.90
18741;DHT22;9499;52.472;13.448;2022-11-20T18:52:15;0.30;99.90
18741;DHT22;9499;52.472;13.448;2022-11-20T18:54:43;0.30;99.90
18741;DHT22;9499;52.472;13.448;2022-11-20T18:57:09;0.20;99.90
18741;DHT22;9499;52.472;13.448;2022-11-20T18:59:39;0.30;99.90